sensor_id;sensor_type;location;lat;lon;timestamp;temperature;humidity
19972;DHT22;10147;16.402;102.848;2024-03-29T00:00:29;26.60;99.90
19972;DHT22;10147;16.402;102.848;2024-03-29T00:02:58;26.60;99.90
19972;DHT22;10147;16.402;102.848;2024-03-29T00:05:27;26.70;99.90
19972;DHT22;10147;16.402;102.848;2024-03-29T00:07:57;26.70;99.90
19972;DHT22;10147;16.402;102.848;2024-03-29T00:10:25;26.70;99.90
19972;DHT22;10147;16.402;102.848;2024-03-29T00:12:53;26.70;99.90
19972;DHT22;10147;16.402;102.848;2024-03-29T00:15:23;26.80;99.90
19972;DHT22;10147;16.402;102.848;2024-03-29T00:17:52;26.80;99.90
19972;DHT22;10147;16.402;102.848;2024-03-29T00:20:21;26.80;99.90
19972;DHT22;10147;16.402;102.848;2024-03-29T00:22:52;26.90;99.90
19972;DHT22;10147;16.402;102.848;2024-03-29T00:25:21;26.90;99.90
19972;DHT22;10147;16.402;102.848;2024-03-29T00:27:50;27.00;99.90
19972;DHT22;10147;16.402;102.848;2024-03-29T00:30:19;27.00;99.90
19972;DHT22;10147;16.402;102.848;2024-03-29T00:32:48;27.00;99.90
19972;DHT22;10147;16.402;102.848;2024-03-29T00:35:17;27.00;99.90
19972;DHT22;10147;16.402;102.848;2024-03-29T00:37:49;27.10;99.90
19972;DHT22;10147;16.402;102.848;2024-03-29T00:40:18;27.20;99.90
19972;DHT22;10147;16.402;102.848;2024-03-29T00:42:47;27.20;99.90
19972;DHT22;10147;16.402;102.848;2024-03-29T00:45:16;27.30;99.90
19972;DHT22;10147;16.402;102.848;2024-03-29T00:47:44;27.40;99.90
19972;DHT22;10147;16.402;102.848;2024-03-29T00:50:12;27.50;99.90
19972;DHT22;10147;16.402;102.848;2024-03-29T00:52:40;27.50;99.90
19972;DHT22;10147;16.402;102.848;2024-03-29T00:55:08;27.60;99.90
19972;DHT22;10147;16.402;102.848;2024-03-29T00:57:36;27.70;99.90
19972;DHT22;10147;16.402;102.848;2024-03-29T01:00:05;27.80;99.90
19972;DHT22;10147;16.402;102.848;2024-03-29T01:02:33;27.90;99.90
19972;DHT22;10147;16.402;102.848;2024-03-29T01:05:01;27.90;99.90
19972;DHT22;10147;16.402;102.848;2024-03-29T01:07:30;28.00;99.90
19972;DHT22;10147;16.402;102.848;2024-03-29T01:09:58;28.00;99.90
19972;DHT22;10147;16.402;102.848;2024-03-29T01:12:26;28.20;99.90
19972;DHT22;10147;16.402;102.848;2024-03-29T01:14:54;28.30;99.90
19972;DHT22;10147;16.402;102.848;2024-03-29T01:17:22;28.30;99.90
19972;DHT22;10147;16.402;102.848;2024-03-29T01:19:50;28.40;99.90
19972;DHT22;10147;16.402;102.848;2024-03-29T01:22:18;28.40;99.90
19972;DHT22;10147;16.402;102.848;2024-03-29T01:24:46;28.40;99.90
19972;DHT22;10147;16.402;102.848;2024-03-29T01:27:14;28.50;99.90
19972;DHT22;10147;16.402;102.848;2024-03-29T01:29:42;28.40;99.90
19972;DHT22;10147;16.402;102.848;2024-03-29T01:32:10;28.20;99.90
19972;DHT22;10147;16.402;102.848;2024-03-29T01:34:40;28.30;99.90
19972;DHT22;10147;16.402;102.848;2024-03-29T01:37:08;28.20;99.90
19972;DHT22;10147;16.402;102.848;2024-03-29T01:39:36;28.20;99.90
19972;DHT22;10147;16.402;102.848;2024-03-29T01:42:05;28.30;99.90
19972;DHT22;10147;16.402;102.848;2024-03-29T01:44:33;28.50;99.90
19972;DHT22;10147;16.402;102.848;2024-03-29T01:47:01;28.60;99.90
19972;DHT22;10147;16.402;102.848;2024-03-29T01:49:30;28.80;99.90
19972;DHT22;10147;16.402;102.848;2024-03-29T01:51:58;28.80;99.90
19972;DHT22;10147;16.402;102.848;2024-03-29T01:54:27;29.00;99.90
19972;DHT22;10147;16.402;102.848;2024-03-29T01:56:56;29.00;99.90
19972;DHT22;10147;16.402;102.848;2024-03-29T01:59:25;28.90;99.90
19972;DHT22;10147;16.402;102.848;2024-03-29T02:01:54;29.10;99.90
19972;DHT22;10147;16.402;102.848;2024-03-29T02:04:23;29.10;99.90
19972;DHT22;10147;16.402;102.848;2024-03-29T02:06:51;29.30;99.90
19972;DHT22;10147;16.402;102.848;2024-03-29T02:09:20;29.50;99.90
19972;DHT22;10147;16.402;102.848;2024-03-29T02:11:48;29.60;99.90
19972;DHT22;10147;16.402;102.848;2024-03-29T02:14:16;29.60;99.90
19972;DHT22;10147;16.402;102.848;2024-03-29T02:16:44;29.60;99.90
19972;DHT22;10147;16.402;102.848;2024-03-29T02:19:12;29.80;99.90
19972;DHT22;10147;16.402;102.848;2024-03-29T02:21:43;29.80;99.90
19972;DHT22;10147;16.402;102.848;2024-03-29T02:24:13;29.70;99.90
19972;DHT22;10147;16.402;102.848;2024-03-29T02:26:44;29.70;99.90
19972;DHT22;10147;16.402;102.848;2024-03-29T02:29:13;29.50;99.90
19972;DHT22;10147;16.402;102.848;2024-03-29T02:31:41;29.50;99.90
19972;DHT22;10147;16.402;102.848;2024-03-29T02:34:09;29.60;99.90
19972;DHT22;10147;16.402;102.848;2024-03-29T02:36:38;29.80;99.90
19972;DHT22;10147;16.402;102.848;2024-03-29T02:39:06;30.00;99.90
19972;DHT22;10147;16.402;102.848;2024-03-29T02:41:34;30.10;99.90
19972;DHT22;10147;16.402;102.848;2024-03-29T02:44:02;30.00;99.90
19972;DHT22;10147;16.402;102.848;2024-03-29T02:46:30;29.80;99.90
19972;DHT22;10147;16.402;102.848;2024-03-29T02:48:58;30.00;99.90
19972;DHT22;10147;16.402;102.848;2024-03-29T02:51:26;30.00;99.90
19972;DHT22;10147;16.402;102.848;2024-03-29T02:53:54;30.30;99.90
19972;DHT22;10147;16.402;102.848;2024-03-29T02:56:22;30.50;99.90
19972;DHT22;10147;16.402;102.848;2024-03-29T02:58:51;30.70;99.90
19972;DHT22;10147;16.402;102.848;2024-03-29T03:01:19;30.60;99.90
19972;DHT22;10147;16.402;102.848;2024-03-29T03:03:48;30.60;99.90
19972;DHT22;10147;16.402;102.848;2024-03-29T03:06:17;30.40;99.90
19972;DHT22;10147;16.402;102.848;2024-03-29T03:08:45;30.50;99.90
19972;DHT22;10147;16.402;102.848;2024-03-29T03:11:33;30.50;99.90
19972;DHT22;10147;16.402;102.848;2024-03-29T03:14:01;30.80;99.90
19972;DHT22;10147;16.402;102.848;2024-03-29T03:16:29;31.00;99.90
19972;DHT22;10147;16.402;102.848;2024-03-29T03:18:58;31.30;99.90
19972;DHT22;10147;16.402;102.848;2024-03-29T03:21:27;31.60;99.90
19972;DHT22;10147;16.402;102.848;2024-03-29T03:23:56;31.30;99.90
19972;DHT22;10147;16.402;102.848;2024-03-29T03:26:24;31.30;99.90
19972;DHT22;10147;16.402;102.848;2024-03-29T03:28:52;31.00;99.90
19972;DHT22;10147;16.402;102.848;2024-03-29T03:31:20;31.00;99.90
19972;DHT22;10147;16.402;102.848;2024-03-29T03:33:48;30.90;99.90
19972;DHT22;10147;16.402;102.848;2024-03-29T03:36:17;31.00;99.90
19972;DHT22;10147;16.402;102.848;2024-03-29T03:38:46;31.00;99.90
19972;DHT22;10147;16.402;102.848;2024-03-29T03:41:15;31.10;99.90
19972;DHT22;10147;16.402;102.848;2024-03-29T03:43:43;31.40;99.90
19972;DHT22;10147;16.402;102.848;2024-03-29T03:46:11;31.40;99.90
19972;DHT22;10147;16.402;102.848;2024-03-29T03:48:39;31.70;99.90
19972;DHT22;10147;16.402;102.848;2024-03-29T03:51:08;31.80;99.90
19972;DHT22;10147;16.402;102.848;2024-03-29T03:53:36;31.90;99.90
19972;DHT22;10147;16.402;102.848;2024-03-29T03:56:05;32.00;99.90
19972;DHT22;10147;16.402;102.848;2024-03-29T03:58:33;32.20;99.90
19972;DHT22;10147;16.402;102.848;2024-03-29T04:01:07;32.30;99.90
19972;DHT22;10147;16.402;102.848;2024-03-29T04:03:35;32.30;99.90
19972;DHT22;10147;16.402;102.848;2024-03-29T04:06:04;32.40;99.90
19972;DHT22;10147;16.402;102.848;2024-03-29T04:08:32;32.60;99.90
19972;DHT22;10147;16.402;102.848;2024-03-29T04:11:04;32.70;99.90
19972;DHT22;10147;16.402;102.848;2024-03-29T04:13:32;32.90;99.90
19972;DHT22;10147;16.402;102.848;2024-03-29T04:16:05;32.80;99.90
19972;DHT22;10147;16.402;102.848;2024-03-29T04:18:34;32.80;99.90
19972;DHT22;10147;16.402;102.848;2024-03-29T04:21:03;33.00;99.90
19972;DHT22;10147;16.402;102.848;2024-03-29T04:23:31;33.20;99.90
19972;DHT22;10147;16.402;102.848;2024-03-29T04:26:00;33.20;99.90
19972;DHT22;10147;16.402;102.848;2024-03-29T04:28:28;33.30;99.90
19972;DHT22;10147;16.402;102.848;2024-03-29T04:31:00;33.40;99.90
19972;DHT22;10147;16.402;102.848;2024-03-29T04:33:30;33.60;99.90
19972;DHT22;10147;16.402;102.848;2024-03-29T04:36:01;33.80;99.90
19972;DHT22;10147;16.402;102.848;2024-03-29T04:38:30;33.80;99.90
19972;DHT22;10147;16.402;102.848;2024-03-29T04:40:59;33.70;99.90
19972;DHT22;10147;16.402;102.848;2024-03-29T04:43:28;33.60;99.90
19972;DHT22;10147;16.402;102.848;2024-03-29T04:46:16;33.80;99.90
19972;DHT22;10147;16.402;102.848;2024-03-29T04:48:44;33.90;99.90
19972;DHT22;10147;16.402;102.848;2024-03-29T04:51:13;34.00;99.90
19972;DHT22;10147;16.402;102.848;2024-03-29T04:53:41;34.10;99.90
19972;DHT22;10147;16.402;102.848;2024-03-29T04:56:09;34.30;99.90
19972;DHT22;10147;16.402;102.848;2024-03-29T04:58:38;34.20;99.90
19972;DHT22;10147;16.402;102.848;2024-03-29T05:01:07;34.20;99.90
19972;DHT22;10147;16.402;102.848;2024-03-29T05:03:35;34.20;99.90
19972;DHT22;10147;16.402;102.848;2024-03-29T05:06:03;34.20;99.90
19972;DHT22;10147;16.402;102.848;2024-03-29T05:08:32;34.40;99.90
19972;DHT22;10147;16.402;102.848;2024-03-29T05:11:00;34.60;99.90
19972;DHT22;10147;16.402;102.848;2024-03-29T05:13:28;34.70;99.90
19972;DHT22;10147;16.402;102.848;2024-03-29T05:15:58;34.60;99.90
19972;DHT22;10147;16.402;102.848;2024-03-29T05:18:26;34.70;99.90
19972;DHT22;10147;16.402;102.848;2024-03-29T05:20:55;34.70;99.90
19972;DHT22;10147;16.402;102.848;2024-03-29T05:23:23;34.80;99.90
19972;DHT22;10147;16.402;102.848;2024-03-29T05:25:52;34.80;99.90
19972;DHT22;10147;16.402;102.848;2024-03-29T05:28:27;34.80;99.90
19972;DHT22;10147;16.402;102.848;2024-03-29T05:30:56;34.80;99.90
19972;DHT22;10147;16.402;102.848;2024-03-29T05:33:24;34.90;99.90
19972;DHT22;10147;16.402;102.848;2024-03-29T05:35:53;35.10;99.90
19972;DHT22;10147;16.402;102.848;2024-03-29T05:38:21;35.30;99.90
19972;DHT22;10147;16.402;102.848;2024-03-29T05:40:49;35.50;99.90
19972;DHT22;10147;16.402;102.848;2024-03-29T05:43:18;35.40;99.90
19972;DHT22;10147;16.402;102.848;2024-03-29T05:45:46;35.30;99.90
19972;DHT22;10147;16.402;102.848;2024-03-29T05:48:14;35.40;99.90
19972;DHT22;10147;16.402;102.848;2024-03-29T05:50:43;35.50;99.90
19972;DHT22;10147;16.402;102.848;2024-03-29T05:53:11;35.60;99.90
19972;DHT22;10147;16.402;102.848;2024-03-29T05:55:39;35.70;99.90
19972;DHT22;10147;16.402;102.848;2024-03-29T05:58:07;35.60;99.90
19972;DHT22;10147;16.402;102.848;2024-03-29T06:00:35;35.50;99.90
19972;DHT22;10147;16.402;102.848;2024-03-29T06:03:04;35.30;99.90
19972;DHT22;10147;16.402;102.848;2024-03-29T06:05:32;35.30;99.90
19972;DHT22;10147;16.402;102.848;2024-03-29T06:08:00;35.50;99.90
19972;DHT22;10147;16.402;102.848;2024-03-29T06:10:29;35.50;99.90
19972;DHT22;10147;16.402;102.848;2024-03-29T06:12:57;35.40;99.90
19972;DHT22;10147;16.402;102.848;2024-03-29T06:15:34;35.30;99.90
19972;DHT22;10147;16.402;102.848;2024-03-29T06:18:22;35.30;99.90
19972;DHT22;10147;16.402;102.848;2024-03-29T06:20:50;35.90;99.90
19972;DHT22;10147;16.402;102.848;2024-03-29T06:23:19;36.00;99.90
19972;DHT22;10147;16.402;102.848;2024-03-29T06:25:47;36.00;99.90
19972;DHT22;10147;16.402;102.848;2024-03-29T06:28:15;36.10;99.90
19972;DHT22;10147;16.402;102.848;2024-03-29T06:30:45;36.00;99.90
19972;DHT22;10147;16.402;102.848;2024-03-29T06:33:14;35.70;99.90
19972;DHT22;10147;16.402;102.848;2024-03-29T06:35:42;35.70;99.90
19972;DHT22;10147;16.402;102.848;2024-03-29T06:38:11;36.00;99.90
19972;DHT22;10147;16.402;102.848;2024-03-29T06:40:41;36.00;99.90
19972;DHT22;10147;16.402;102.848;2024-03-29T06:43:12;35.80;99.90
19972;DHT22;10147;16.402;102.848;2024-03-29T06:45:41;35.70;99.90
19972;DHT22;10147;16.402;102.848;2024-03-29T06:48:12;35.60;99.90
19972;DHT22;10147;16.402;102.848;2024-03-29T06:50:41;35.50;99.90
19972;DHT22;10147;16.402;102.848;2024-03-29T06:53:10;35.20;99.90
19972;DHT22;10147;16.402;102.848;2024-03-29T06:55:39;35.20;99.90
19972;DHT22;10147;16.402;102.848;2024-03-29T06:58:07;35.00;99.90
19972;DHT22;10147;16.402;102.848;2024-03-29T07:00:38;34.90;99.90
19972;DHT22;10147;16.402;102.848;2024-03-29T07:03:06;34.90;99.90
19972;DHT22;10147;16.402;102.848;2024-03-29T07:05:34;34.80;99.90
19972;DHT22;10147;16.402;102.848;2024-03-29T07:08:03;34.80;99.90
19972;DHT22;10147;16.402;102.848;2024-03-29T07:10:32;34.90;99.90
19972;DHT22;10147;16.402;102.848;2024-03-29T07:13:00;34.70;99.90
19972;DHT22;10147;16.402;102.848;2024-03-29T07:15:28;34.60;99.90
19972;DHT22;10147;16.402;102.848;2024-03-29T07:17:56;34.60;99.90
19972;DHT22;10147;16.402;102.848;2024-03-29T07:20:26;34.80;99.90
19972;DHT22;10147;16.402;102.848;2024-03-29T07:22:56;34.90;99.90
19972;DHT22;10147;16.402;102.848;2024-03-29T07:25:24;35.10;99.90
19972;DHT22;10147;16.402;102.848;2024-03-29T07:27:53;35.30;99.90
19972;DHT22;10147;16.402;102.848;2024-03-29T07:30:22;35.50;99.90
19972;DHT22;10147;16.402;102.848;2024-03-29T07:32:50;35.50;99.90
19972;DHT22;10147;16.402;102.848;2024-03-29T07:35:18;35.50;99.90
19972;DHT22;10147;16.402;102.848;2024-03-29T07:37:46;35.40;99.90
19972;DHT22;10147;16.402;102.848;2024-03-29T07:40:17;35.60;99.90
19972;DHT22;10147;16.402;102.848;2024-03-29T07:42:44;35.70;99.90
19972;DHT22;10147;16.402;102.848;2024-03-29T07:45:13;35.60;99.90
19972;DHT22;10147;16.402;102.848;2024-03-29T07:47:42;35.50;99.90
19972;DHT22;10147;16.402;102.848;2024-03-29T07:50:11;35.70;99.90
19972;DHT22;10147;16.402;102.848;2024-03-29T07:52:40;35.70;99.90
19972;DHT22;10147;16.402;102.848;2024-03-29T07:55:08;35.60;99.90
19972;DHT22;10147;16.402;102.848;2024-03-29T07:57:37;35.70;99.90
19972;DHT22;10147;16.402;102.848;2024-03-29T08:00:06;35.60;99.90
19972;DHT22;10147;16.402;102.848;2024-03-29T08:02:34;35.40;99.90
19972;DHT22;10147;16.402;102.848;2024-03-29T08:05:03;35.30;99.90
19972;DHT22;10147;16.402;102.848;2024-03-29T08:07:34;35.20;99.90
19972;DHT22;10147;16.402;102.848;2024-03-29T08:10:02;35.30;99.90
19972;DHT22;10147;16.402;102.848;2024-03-29T08:12:32;35.40;99.90
19972;DHT22;10147;16.402;102.848;2024-03-29T08:15:00;35.50;99.90
19972;DHT22;10147;16.402;102.848;2024-03-29T08:17:28;35.50;99.90
19972;DHT22;10147;16.402;102.848;2024-03-29T08:19:57;35.40;99.90
19972;DHT22;10147;16.402;102.848;2024-03-29T08:22:27;35.20;99.90
19972;DHT22;10147;16.402;102.848;2024-03-29T08:24:56;35.20;99.90
19972;DHT22;10147;16.402;102.848;2024-03-29T08:27:24;35.50;99.90
19972;DHT22;10147;16.402;102.848;2024-03-29T08:29:53;35.60;99.90
19972;DHT22;10147;16.402;102.848;2024-03-29T08:32:21;35.70;99.90
19972;DHT22;10147;16.402;102.848;2024-03-29T08:34:49;35.70;99.90
19972;DHT22;10147;16.402;102.848;2024-03-29T08:37:19;35.60;99.90
19972;DHT22;10147;16.402;102.848;2024-03-29T08:39:48;35.50;99.90
19972;DHT22;10147;16.402;102.848;2024-03-29T08:42:16;35.40;99.90
19972;DHT22;10147;16.402;102.848;2024-03-29T08:44:44;35.50;99.90
19972;DHT22;10147;16.402;102.848;2024-03-29T08:47:13;35.30;99.90
19972;DHT22;10147;16.402;102.848;2024-03-29T08:49:42;35.10;99.90
19972;DHT22;10147;16.402;102.848;2024-03-29T08:52:10;35.00;99.90
19972;DHT22;10147;16.402;102.848;2024-03-29T08:54:38;35.10;99.90
19972;DHT22;10147;16.402;102.848;2024-03-29T08:57:06;35.20;99.90
19972;DHT22;10147;16.402;102.848;2024-03-29T08:59:35;35.40;99.90
19972;DHT22;10147;16.402;102.848;2024-03-29T09:02:06;35.30;99.90
19972;DHT22;10147;16.402;102.848;2024-03-29T09:04:36;35.30;99.90
19972;DHT22;10147;16.402;102.848;2024-03-29T09:07:04;35.20;99.90
19972;DHT22;10147;16.402;102.848;2024-03-29T09:09:33;35.20;99.90
19972;DHT22;10147;16.402;102.848;2024-03-29T09:12:02;34.90;99.90
19972;DHT22;10147;16.402;102.848;2024-03-29T09:14:31;34.80;99.90
19972;DHT22;10147;16.402;102.848;2024-03-29T09:16:59;34.60;99.90
19972;DHT22;10147;16.402;102.848;2024-03-29T09:19:29;34.50;99.90
19972;DHT22;10147;16.402;102.848;2024-03-29T09:22:01;34.40;99.90
19972;DHT22;10147;16.402;102.848;2024-03-29T09:24:29;34.40;99.90
19972;DHT22;10147;16.402;102.848;2024-03-29T09:26:59;34.40;99.90
19972;DHT22;10147;16.402;102.848;2024-03-29T09:29:28;34.40;99.90
19972;DHT22;10147;16.402;102.848;2024-03-29T09:31:56;34.20;99.90
19972;DHT22;10147;16.402;102.848;2024-03-29T09:34:24;34.20;99.90
19972;DHT22;10147;16.402;102.848;2024-03-29T09:36:53;34.30;99.90
19972;DHT22;10147;16.402;102.848;2024-03-29T09:39:21;34.30;99.90
19972;DHT22;10147;16.402;102.848;2024-03-29T09:41:49;34.20;99.90
19972;DHT22;10147;16.402;102.848;2024-03-29T09:44:19;34.30;99.90
19972;DHT22;10147;16.402;102.848;2024-03-29T09:46:50;34.30;99.90
19972;DHT22;10147;16.402;102.848;2024-03-29T09:49:19;34.40;99.90
19972;DHT22;10147;16.402;102.848;2024-03-29T09:51:49;34.30;99.90
19972;DHT22;10147;16.402;102.848;2024-03-29T09:54:21;34.30;99.90
19972;DHT22;10147;16.402;102.848;2024-03-29T09:56:50;34.30;99.90
19972;DHT22;10147;16.402;102.848;2024-03-29T09:59:18;34.20;99.90
19972;DHT22;10147;16.402;102.848;2024-03-29T10:01:48;34.20;99.90
19972;DHT22;10147;16.402;102.848;2024-03-29T10:04:18;34.20;99.90
19972;DHT22;10147;16.402;102.848;2024-03-29T10:06:49;34.20;99.90
19972;DHT22;10147;16.402;102.848;2024-03-29T10:09:21;34.10;99.90
19972;DHT22;10147;16.402;102.848;2024-03-29T10:11:50;34.10;99.90
19972;DHT22;10147;16.402;102.848;2024-03-29T10:14:18;34.00;99.90
19972;DHT22;10147;16.402;102.848;2024-03-29T10:16:46;34.00;99.90
19972;DHT22;10147;16.402;102.848;2024-03-29T10:19:14;33.90;99.90
19972;DHT22;10147;16.402;102.848;2024-03-29T10:21:44;33.90;99.90
19972;DHT22;10147;16.402;102.848;2024-03-29T10:24:16;33.80;99.90
19972;DHT22;10147;16.402;102.848;2024-03-29T10:26:48;33.70;99.90
19972;DHT22;10147;16.402;102.848;2024-03-29T10:29:16;33.80;99.90
19972;DHT22;10147;16.402;102.848;2024-03-29T10:31:44;33.70;99.90
19972;DHT22;10147;16.402;102.848;2024-03-29T10:34:12;33.60;99.90
19972;DHT22;10147;16.402;102.848;2024-03-29T10:36:41;33.60;99.90
19972;DHT22;10147;16.402;102.848;2024-03-29T10:39:12;33.60;99.90
19972;DHT22;10147;16.402;102.848;2024-03-29T10:41:41;33.70;99.90
19972;DHT22;10147;16.402;102.848;2024-03-29T10:44:13;33.70;99.90
19972;DHT22;10147;16.402;102.848;2024-03-29T10:46:42;33.50;99.90
19972;DHT22;10147;16.402;102.848;2024-03-29T10:49:12;33.20;99.90
19972;DHT22;10147;16.402;102.848;2024-03-29T10:51:42;33.20;99.90
19972;DHT22;10147;16.402;102.848;2024-03-29T10:54:12;33.00;99.90
19972;DHT22;10147;16.402;102.848;2024-03-29T10:56:42;33.00;99.90
19972;DHT22;10147;16.402;102.848;2024-03-29T10:59:34;33.10;99.90
19972;DHT22;10147;16.402;102.848;2024-03-29T11:02:12;33.20;99.90
19972;DHT22;10147;16.402;102.848;2024-03-29T11:04:41;33.20;99.90
19972;DHT22;10147;16.402;102.848;2024-03-29T11:07:19;33.30;99.90
19972;DHT22;10147;16.402;102.848;2024-03-29T11:09:52;32.90;99.90
19972;DHT22;10147;16.402;102.848;2024-03-29T11:12:23;32.90;99.90
19972;DHT22;10147;16.402;102.848;2024-03-29T11:15:10;33.00;99.90
19972;DHT22;10147;16.402;102.848;2024-03-29T11:17:42;33.00;99.90
19972;DHT22;10147;16.402;102.848;2024-03-29T11:20:10;32.90;99.90
19972;DHT22;10147;16.402;102.848;2024-03-29T11:22:43;32.80;99.90
19972;DHT22;10147;16.402;102.848;2024-03-29T11:25:11;32.80;99.90
19972;DHT22;10147;16.402;102.848;2024-03-29T11:27:41;32.70;99.90
19972;DHT22;10147;16.402;102.848;2024-03-29T11:30:09;32.70;99.90
19972;DHT22;10147;16.402;102.848;2024-03-29T11:32:38;32.60;99.90
19972;DHT22;10147;16.402;102.848;2024-03-29T11:35:14;32.40;99.90
19972;DHT22;10147;16.402;102.848;2024-03-29T11:37:44;32.10;99.90
19972;DHT22;10147;16.402;102.848;2024-03-29T11:40:12;31.90;99.90
19972;DHT22;10147;16.402;102.848;2024-03-29T11:42:52;31.70;99.90
19972;DHT22;10147;16.402;102.848;2024-03-29T11:45:21;31.60;99.90
19972;DHT22;10147;16.402;102.848;2024-03-29T11:47:51;31.60;99.90
19972;DHT22;10147;16.402;102.848;2024-03-29T11:50:20;31.40;99.90
19972;DHT22;10147;16.402;102.848;2024-03-29T11:52:48;31.40;99.90
19972;DHT22;10147;16.402;102.848;2024-03-29T11:55:19;31.30;99.90
19972;DHT22;10147;16.402;102.848;2024-03-29T11:57:47;31.10;99.90
19972;DHT22;10147;16.402;102.848;2024-03-29T12:00:15;31.10;99.90
19972;DHT22;10147;16.402;102.848;2024-03-29T12:02:43;30.60;99.90
19972;DHT22;10147;16.402;102.848;2024-03-29T12:05:12;30.10;99.90
19972;DHT22;10147;16.402;102.848;2024-03-29T12:07:40;29.90;99.90
19972;DHT22;10147;16.402;102.848;2024-03-29T12:10:09;29.70;99.90
19972;DHT22;10147;16.402;102.848;2024-03-29T12:12:37;29.80;99.90
19972;DHT22;10147;16.402;102.848;2024-03-29T12:15:06;29.60;99.90
19972;DHT22;10147;16.402;102.848;2024-03-29T12:17:34;29.30;99.90
19972;DHT22;10147;16.402;102.848;2024-03-29T12:20:06;29.20;99.90
19972;DHT22;10147;16.402;102.848;2024-03-29T12:22:40;29.10;99.90
19972;DHT22;10147;16.402;102.848;2024-03-29T12:25:09;28.80;99.90
19972;DHT22;10147;16.402;102.848;2024-03-29T12:27:38;28.80;99.90
19972;DHT22;10147;16.402;102.848;2024-03-29T12:30:07;28.70;99.90
19972;DHT22;10147;16.402;102.848;2024-03-29T12:32:35;28.70;99.90
19972;DHT22;10147;16.402;102.848;2024-03-29T12:35:15;28.80;99.90
19972;DHT22;10147;16.402;102.848;2024-03-29T12:37:50;29.00;99.90
19972;DHT22;10147;16.402;102.848;2024-03-29T12:40:28;29.20;99.90
19972;DHT22;10147;16.402;102.848;2024-03-29T12:42:58;29.10;99.90
19972;DHT22;10147;16.402;102.848;2024-03-29T12:45:26;28.90;99.90
19972;DHT22;10147;16.402;102.848;2024-03-29T12:47:55;28.90;99.90
19972;DHT22;10147;16.402;102.848;2024-03-29T12:50:32;28.90;99.90
19972;DHT22;10147;16.402;102.848;2024-03-29T12:53:06;28.80;99.90
19972;DHT22;10147;16.402;102.848;2024-03-29T12:55:35;29.40;99.90
19972;DHT22;10147;16.402;102.848;2024-03-29T12:58:07;29.50;99.90
19972;DHT22;10147;16.402;102.848;2024-03-29T13:00:38;29.70;99.90
19972;DHT22;10147;16.402;102.848;2024-03-29T13:03:07;29.80;99.90
19972;DHT22;10147;16.402;102.848;2024-03-29T13:05:36;29.70;99.90
19972;DHT22;10147;16.402;102.848;2024-03-29T13:08:12;30.20;99.90
19972;DHT22;10147;16.402;102.848;2024-03-29T13:10:43;30.40;99.90
19972;DHT22;10147;16.402;102.848;2024-03-29T13:13:12;30.50;99.90
19972;DHT22;10147;16.402;102.848;2024-03-29T13:15:42;30.50;99.90
19972;DHT22;10147;16.402;102.848;2024-03-29T13:18:10;30.50;99.90
19972;DHT22;10147;16.402;102.848;2024-03-29T13:20:41;30.40;99.90
19972;DHT22;10147;16.402;102.848;2024-03-29T13:23:10;30.20;99.90
19972;DHT22;10147;16.402;102.848;2024-03-29T13:25:39;30.50;99.90
19972;DHT22;10147;16.402;102.848;2024-03-29T13:28:08;30.70;99.90
19972;DHT22;10147;16.402;102.848;2024-03-29T13:30:37;30.60;99.90
19972;DHT22;10147;16.402;102.848;2024-03-29T13:33:10;30.40;99.90
19972;DHT22;10147;16.402;102.848;2024-03-29T13:35:42;29.90;99.90
19972;DHT22;10147;16.402;102.848;2024-03-29T13:38:12;29.40;99.90
19972;DHT22;10147;16.402;102.848;2024-03-29T13:40:40;29.10;99.90
19972;DHT22;10147;16.402;102.848;2024-03-29T13:43:08;29.10;99.90
19972;DHT22;10147;16.402;102.848;2024-03-29T13:45:37;28.90;99.90
19972;DHT22;10147;16.402;102.848;2024-03-29T13:48:07;28.80;99.90
19972;DHT22;10147;16.402;102.848;2024-03-29T13:50:36;29.20;99.90
19972;DHT22;10147;16.402;102.848;2024-03-29T13:53:05;29.30;99.90
19972;DHT22;10147;16.402;102.848;2024-03-29T13:55:33;29.10;99.90
19972;DHT22;10147;16.402;102.848;2024-03-29T13:58:02;28.90;99.90
19972;DHT22;10147;16.402;102.848;2024-03-29T14:00:30;28.80;99.90
19972;DHT22;10147;16.402;102.848;2024-03-29T14:03:00;28.80;99.90
19972;DHT22;10147;16.402;102.848;2024-03-29T14:05:28;29.30;99.90
19972;DHT22;10147;16.402;102.848;2024-03-29T14:08:01;29.70;99.90
19972;DHT22;10147;16.402;102.848;2024-03-29T14:10:30;29.90;99.90
19972;DHT22;10147;16.402;102.848;2024-03-29T14:13:03;29.80;99.90
19972;DHT22;10147;16.402;102.848;2024-03-29T14:15:32;29.80;99.90
19972;DHT22;10147;16.402;102.848;2024-03-29T14:18:01;29.70;99.90
19972;DHT22;10147;16.402;102.848;2024-03-29T14:20:29;29.80;99.90
19972;DHT22;10147;16.402;102.848;2024-03-29T14:23:00;29.30;99.90
19972;DHT22;10147;16.402;102.848;2024-03-29T14:25:33;29.50;99.90
19972;DHT22;10147;16.402;102.848;2024-03-29T14:28:02;29.90;99.90
19972;DHT22;10147;16.402;102.848;2024-03-29T14:30:31;30.50;99.90
19972;DHT22;10147;16.402;102.848;2024-03-29T14:32:59;29.80;99.90
19972;DHT22;10147;16.402;102.848;2024-03-29T14:35:37;30.00;99.90
19972;DHT22;10147;16.402;102.848;2024-03-29T14:38:05;30.00;99.90
19972;DHT22;10147;16.402;102.848;2024-03-29T14:40:34;30.10;99.90
19972;DHT22;10147;16.402;102.848;2024-03-29T14:43:02;29.80;99.90
19972;DHT22;10147;16.402;102.848;2024-03-29T14:45:33;29.20;99.90
19972;DHT22;10147;16.402;102.848;2024-03-29T14:48:01;29.30;99.90
19972;DHT22;10147;16.402;102.848;2024-03-29T14:50:30;29.10;99.90
19972;DHT22;10147;16.402;102.848;2024-03-29T14:53:01;28.90;99.90
19972;DHT22;10147;16.402;102.848;2024-03-29T14:55:29;28.60;99.90
19972;DHT22;10147;16.402;102.848;2024-03-29T14:57:58;28.50;99.90
19972;DHT22;10147;16.402;102.848;2024-03-29T15:00:27;28.40;99.90
19972;DHT22;10147;16.402;102.848;2024-03-29T15:02:55;28.30;99.90
19972;DHT22;10147;16.402;102.848;2024-03-29T15:05:23;28.00;99.90
19972;DHT22;10147;16.402;102.848;2024-03-29T15:07:54;27.80;99.90
19972;DHT22;10147;16.402;102.848;2024-03-29T15:10:23;27.60;99.90
19972;DHT22;10147;16.402;102.848;2024-03-29T15:12:51;27.30;99.90
19972;DHT22;10147;16.402;102.848;2024-03-29T15:15:19;27.20;99.90